createdAt,value
2022-12-25T00:00:43.477Z,966.41
2022-12-25T00:01:33.424Z,966.44
2022-12-25T00:02:23.485Z,966.44
2022-12-25T00:03:13.560Z,966.44
2022-12-25T00:04:03.480Z,966.47
2022-12-25T00:04:53.397Z,966.43
2022-12-25T00:05:43.401Z,966.45
2022-12-25T00:06:33.376Z,966.46
2022-12-25T00:07:23.361Z,966.43
2022-12-25T00:08:13.358Z,966.44
2022-12-25T00:09:03.343Z,966.44
2022-12-25T00:09:53.342Z,966.43
2022-12-25T00:10:45.515Z,966.38
2022-12-25T00:11:33.324Z,966.42
2022-12-25T00:12:23.300Z,966.40
2022-12-25T00:13:13.307Z,966.36
2022-12-25T00:14:03.292Z,966.46
2022-12-25T00:14:53.281Z,966.41
2022-12-25T00:15:43.262Z,966.41
2022-12-25T00:16:33.429Z,966.42
2022-12-25T00:17:23.251Z,966.37
2022-12-25T00:18:13.241Z,966.37
2022-12-25T00:19:03.246Z,966.38
2022-12-25T00:19:53.220Z,966.37
2022-12-25T00:20:43.223Z,966.36
2022-12-25T00:21:33.248Z,966.38
2022-12-25T00:22:23.209Z,966.37
2022-12-25T00:23:13.188Z,966.40
2022-12-25T00:24:03.182Z,966.38
2022-12-25T00:24:53.173Z,966.35
2022-12-25T00:25:43.159Z,966.36
2022-12-25T00:26:33.169Z,966.34
2022-12-25T00:27:23.158Z,966.29
2022-12-25T00:28:13.132Z,966.22
2022-12-25T00:29:03.134Z,966.24
2022-12-25T00:29:53.115Z,966.28
2022-12-25T00:30:43.102Z,966.27
2022-12-25T00:31:33.126Z,966.26
2022-12-25T00:32:23.080Z,966.22
2022-12-25T00:33:13.099Z,966.19
2022-12-25T00:34:03.059Z,966.21
2022-12-25T00:34:53.088Z,966.23
2022-12-25T00:35:43.047Z,966.23
2022-12-25T00:36:39.516Z,966.24
2022-12-25T00:37:24.027Z,966.28
2022-12-25T00:38:13.018Z,966.31
2022-12-25T00:39:03.012Z,966.33
2022-12-25T00:39:53.017Z,966.34
2022-12-25T00:40:42.985Z,966.35
2022-12-25T00:41:32.991Z,966.36
2022-12-25T00:42:22.965Z,966.38
2022-12-25T00:43:12.965Z,966.37
2022-12-25T00:44:02.955Z,966.38
2022-12-25T00:44:52.960Z,966.39
2022-12-25T00:45:43.043Z,966.36
2022-12-25T00:46:32.941Z,966.38
2022-12-25T00:47:22.988Z,966.40
2022-12-25T00:48:12.909Z,966.36
2022-12-25T00:49:02.894Z,966.38
2022-12-25T00:49:52.892Z,966.38
2022-12-25T00:50:42.874Z,966.35
2022-12-25T00:51:32.905Z,966.34
2022-12-25T00:52:22.853Z,966.29
2022-12-25T00:53:12.843Z,966.33
2022-12-25T00:54:02.838Z,966.36
2022-12-25T00:54:52.838Z,966.32
2022-12-25T00:55:42.823Z,966.31
2022-12-25T00:56:32.835Z,966.29
2022-12-25T00:57:22.803Z,966.28
2022-12-25T00:58:12.805Z,966.30
2022-12-25T00:59:02.807Z,966.24
2022-12-25T00:59:52.797Z,966.30
2022-12-25T01:00:42.780Z,966.23
2022-12-25T01:01:32.893Z,966.28
2022-12-25T01:02:22.850Z,966.31
2022-12-25T01:03:12.778Z,966.31
2022-12-25T01:04:02.737Z,966.36
2022-12-25T01:04:52.740Z,966.33
2022-12-25T01:05:42.714Z,966.32
2022-12-25T01:06:32.702Z,966.27
2022-12-25T01:07:22.723Z,966.25
2022-12-25T01:08:12.695Z,966.33
2022-12-25T01:09:02.693Z,966.34
2022-12-25T01:09:52.675Z,966.30
2022-12-25T01:10:42.653Z,966.31
2022-12-25T01:11:32.650Z,966.27
2022-12-25T01:12:22.662Z,966.26
2022-12-25T01:13:12.637Z,966.23
2022-12-25T01:14:02.642Z,966.22
2022-12-25T01:14:52.611Z,966.21
2022-12-25T01:15:42.626Z,966.21
2022-12-25T01:16:32.649Z,966.24
2022-12-25T01:17:22.610Z,966.28
2022-12-25T01:18:13.048Z,966.29
2022-12-25T01:19:02.612Z,966.27
2022-12-25T01:19:52.557Z,966.31
2022-12-25T01:20:42.570Z,966.29
2022-12-25T01:21:32.542Z,966.26
2022-12-25T01:22:22.534Z,966.29
2022-12-25T01:23:12.521Z,966.29
2022-12-25T01:24:02.528Z,966.29
2022-12-25T01:24:52.532Z,966.32
2022-12-25T01:25:42.496Z,966.39
2022-12-25T01:26:32.507Z,966.39
2022-12-25T01:27:22.480Z,966.38
2022-12-25T01:28:12.473Z,966.39
2022-12-25T01:29:02.460Z,966.39
2022-12-25T01:29:52.466Z,966.44
2022-12-25T01:30:42.437Z,966.38
2022-12-25T01:31:32.555Z,966.38
2022-12-25T01:32:22.413Z,966.35
2022-12-25T01:33:12.417Z,966.39
2022-12-25T01:34:02.403Z,966.41
2022-12-25T01:34:56.175Z,966.45
2022-12-25T01:35:42.449Z,966.42
2022-12-25T01:36:32.380Z,966.38
2022-12-25T01:37:22.360Z,966.35
2022-12-25T01:38:12.356Z,966.38
2022-12-25T01:39:02.354Z,966.40
2022-12-25T01:39:52.349Z,966.40
2022-12-25T01:40:42.356Z,966.41
2022-12-25T01:41:32.342Z,966.41
2022-12-25T01:42:22.310Z,966.40
2022-12-25T01:43:17.028Z,966.45
2022-12-25T01:44:03.292Z,966.44
2022-12-25T01:44:52.287Z,966.41
2022-12-25T01:45:42.327Z,966.44
2022-12-25T01:46:32.294Z,966.38
2022-12-25T01:47:22.244Z,966.41
2022-12-25T01:48:12.245Z,966.44
2022-12-25T01:49:02.244Z,966.44
2022-12-25T01:49:52.237Z,966.43
2022-12-25T01:50:42.225Z,966.46
2022-12-25T01:51:32.216Z,966.48
2022-12-25T01:52:24.275Z,966.46
2022-12-25T01:53:12.212Z,966.45
2022-12-25T01:54:02.182Z,966.50
2022-12-25T01:54:52.277Z,966.45
2022-12-25T01:55:42.162Z,966.47
2022-12-25T01:56:32.165Z,966.43
2022-12-25T01:57:22.222Z,966.45
2022-12-25T01:58:12.141Z,966.37
2022-12-25T01:59:02.115Z,966.41
2022-12-25T01:59:52.118Z,966.45
2022-12-25T02:00:42.142Z,966.41
2022-12-25T02:01:32.272Z,966.47
2022-12-25T02:02:22.201Z,966.41
2022-12-25T02:03:12.123Z,966.41
2022-12-25T02:04:02.090Z,966.44
2022-12-25T02:04:52.066Z,966.43
2022-12-25T02:05:42.046Z,966.47
2022-12-25T02:06:32.043Z,966.42
2022-12-25T02:07:22.033Z,966.43
2022-12-25T02:08:12.073Z,966.40
2022-12-25T02:09:02.010Z,966.38
2022-12-25T02:09:52.009Z,966.38
2022-12-25T02:10:41.999Z,966.38
2022-12-25T02:11:31.995Z,966.35
2022-12-25T02:12:21.984Z,966.33
2022-12-25T02:13:11.981Z,966.33
2022-12-25T02:14:01.971Z,966.33
2022-12-25T02:14:51.960Z,966.35
2022-12-25T02:15:41.946Z,966.35
2022-12-25T02:16:31.974Z,966.32
2022-12-25T02:17:21.954Z,966.35
2022-12-25T02:18:11.929Z,966.37
2022-12-25T02:19:01.913Z,966.41
2022-12-25T02:19:51.900Z,966.38
2022-12-25T02:20:41.880Z,966.42
2022-12-25T02:21:31.887Z,966.42
2022-12-25T02:22:21.860Z,966.41
2022-12-25T02:23:11.863Z,966.40
2022-12-25T02:24:01.860Z,966.36
2022-12-25T02:24:51.847Z,966.36
2022-12-25T02:25:41.824Z,966.39
2022-12-25T02:26:31.823Z,966.34
2022-12-25T02:27:21.810Z,966.34
2022-12-25T02:28:11.811Z,966.34
2022-12-25T02:29:01.823Z,966.34
2022-12-25T02:29:51.779Z,966.29
2022-12-25T02:30:41.769Z,966.28
2022-12-25T02:31:31.786Z,966.25
2022-12-25T02:32:21.769Z,966.29
2022-12-25T02:33:11.749Z,966.27
2022-12-25T02:34:01.749Z,966.25
2022-12-25T02:34:51.727Z,966.27
2022-12-25T02:35:41.719Z,966.27
2022-12-25T02:36:31.709Z,966.27
2022-12-25T02:37:21.689Z,966.25
2022-12-25T02:38:11.708Z,966.26
2022-12-25T02:39:01.686Z,966.24
2022-12-25T02:39:51.678Z,966.25
2022-12-25T02:40:41.671Z,966.24
2022-12-25T02:41:31.680Z,966.23
2022-12-25T02:42:21.645Z,966.22
2022-12-25T02:43:11.630Z,966.19
2022-12-25T02:44:01.631Z,966.25
2022-12-25T02:44:51.662Z,966.24
2022-12-25T02:45:41.625Z,966.26
2022-12-25T02:46:31.701Z,966.25
2022-12-25T02:47:21.577Z,966.22
2022-12-25T02:48:11.589Z,966.24
2022-12-25T02:49:01.571Z,966.24
2022-12-25T02:49:51.557Z,966.30
2022-12-25T02:50:41.587Z,966.23
2022-12-25T02:51:31.577Z,966.26
2022-12-25T02:52:21.537Z,966.27
2022-12-25T02:53:11.547Z,966.30
2022-12-25T02:54:01.518Z,966.29
2022-12-25T02:54:51.515Z,966.26
2022-12-25T02:55:41.525Z,966.20
2022-12-25T02:56:31.487Z,966.20
2022-12-25T02:57:21.477Z,966.19
2022-12-25T02:58:11.468Z,966.20
2022-12-25T02:59:01.496Z,966.18
2022-12-25T02:59:51.561Z,966.19
2022-12-25T03:00:41.480Z,966.21
2022-12-25T03:01:31.603Z,966.21
2022-12-25T03:02:21.551Z,966.20
2022-12-25T03:03:11.443Z,966.18
2022-12-25T03:04:01.407Z,966.20
2022-12-25T03:04:51.400Z,966.19
2022-12-25T03:05:41.404Z,966.19
2022-12-25T03:06:31.385Z,966.21
2022-12-25T03:07:21.366Z,966.17
2022-12-25T03:08:11.361Z,966.14
2022-12-25T03:09:01.374Z,966.11
2022-12-25T03:09:51.337Z,966.13
2022-12-25T03:10:41.328Z,966.15
2022-12-25T03:11:31.375Z,966.14
2022-12-25T03:12:21.349Z,966.15
2022-12-25T03:13:54.018Z,966.15
2022-12-25T03:14:01.271Z,966.16
2022-12-25T03:14:51.273Z,966.15
2022-12-25T03:15:41.275Z,966.13
2022-12-25T03:16:31.279Z,966.13
2022-12-25T03:17:21.288Z,966.12
2022-12-25T03:18:11.265Z,966.13
2022-12-25T03:19:01.230Z,966.10
2022-12-25T03:19:51.221Z,966.10
2022-12-25T03:20:41.217Z,966.11
2022-12-25T03:21:31.210Z,966.09
2022-12-25T03:22:21.199Z,966.06
2022-12-25T03:23:11.192Z,966.05
2022-12-25T03:24:01.194Z,966.06
2022-12-25T03:24:51.173Z,966.04
2022-12-25T03:25:41.163Z,966.03
2022-12-25T03:26:31.151Z,966.03
2022-12-25T03:27:21.141Z,966.01
2022-12-25T03:28:11.132Z,966.01
2022-12-25T03:29:01.130Z,965.99
2022-12-25T03:29:51.122Z,966.01
2022-12-25T03:30:41.160Z,965.98
2022-12-25T03:31:31.099Z,965.97
2022-12-25T03:32:21.080Z,965.97
2022-12-25T03:33:36.766Z,965.95
2022-12-25T03:34:02.083Z,965.92
2022-12-25T03:34:51.063Z,965.89
2022-12-25T03:35:41.049Z,965.89
2022-12-25T03:36:31.039Z,965.92
2022-12-25T03:37:21.037Z,965.81
2022-12-25T03:38:11.035Z,965.85
2022-12-25T03:39:01.019Z,965.78
2022-12-25T03:39:51.010Z,965.80
2022-12-25T03:40:41.000Z,965.79
2022-12-25T03:41:31.006Z,965.81
2022-12-25T03:42:20.978Z,965.83
2022-12-25T03:43:10.987Z,965.90
2022-12-25T03:44:00.969Z,965.88
2022-12-25T03:44:50.953Z,965.90
2022-12-25T03:45:40.932Z,965.91
2022-12-25T03:46:31.054Z,965.90
2022-12-25T03:47:20.929Z,965.89
2022-12-25T03:48:10.919Z,965.88
2022-12-25T03:49:00.939Z,965.83
2022-12-25T03:49:50.900Z,965.84
2022-12-25T03:50:40.892Z,965.79
2022-12-25T03:51:30.902Z,965.75
2022-12-25T03:52:20.859Z,965.72
2022-12-25T03:53:10.857Z,965.72
2022-12-25T03:54:00.856Z,965.71
2022-12-25T03:54:50.838Z,965.69
2022-12-25T03:55:40.833Z,965.68
2022-12-25T03:56:30.845Z,965.70
2022-12-25T03:57:20.836Z,965.70
2022-12-25T03:58:10.804Z,965.73
2022-12-25T03:59:00.805Z,965.74
2022-12-25T03:59:50.797Z,965.73
2022-12-25T04:00:40.776Z,965.74
2022-12-25T04:01:30.838Z,965.77
2022-12-25T04:02:20.864Z,965.73
2022-12-25T04:03:10.785Z,965.69
2022-12-25T04:04:00.747Z,965.72
2022-12-25T04:04:50.734Z,965.70
2022-12-25T04:05:40.711Z,965.71
2022-12-25T04:06:30.715Z,965.69
2022-12-25T04:07:20.702Z,965.74
2022-12-25T04:08:10.698Z,965.70
2022-12-25T04:09:00.695Z,965.65
2022-12-25T04:09:50.708Z,965.64
2022-12-25T04:10:40.666Z,965.68
2022-12-25T04:11:30.654Z,965.76
2022-12-25T04:12:20.647Z,965.81
2022-12-25T04:13:10.662Z,965.76
2022-12-25T04:14:00.641Z,965.71
2022-12-25T04:14:50.616Z,965.71
2022-12-25T04:15:40.626Z,965.70
2022-12-25T04:16:30.595Z,965.67
2022-12-25T04:17:20.599Z,965.73
2022-12-25T04:18:10.598Z,965.70
2022-12-25T04:19:00.590Z,965.68
2022-12-25T04:19:50.564Z,965.71
2022-12-25T04:20:40.556Z,965.72
2022-12-25T04:21:30.563Z,965.74
2022-12-25T04:22:20.535Z,965.74
2022-12-25T04:23:10.533Z,965.77
2022-12-25T04:24:00.533Z,965.78
2022-12-25T04:24:50.514Z,965.71
2022-12-25T04:25:40.511Z,965.71
2022-12-25T04:26:30.483Z,965.68
2022-12-25T04:27:20.477Z,965.74
2022-12-25T04:28:10.473Z,965.76
2022-12-25T04:29:00.471Z,965.72
2022-12-25T04:29:50.461Z,965.72
2022-12-25T04:30:40.443Z,965.71
2022-12-25T04:31:30.460Z,965.67
2022-12-25T04:32:20.421Z,965.71
2022-12-25T04:33:10.420Z,965.67
2022-12-25T04:34:00.409Z,965.67
2022-12-25T04:34:50.391Z,965.65
2022-12-25T04:35:40.390Z,965.64
2022-12-25T04:36:30.375Z,965.64
2022-12-25T04:37:20.371Z,965.66
2022-12-25T04:38:10.375Z,965.63
2022-12-25T04:39:00.387Z,965.68
2022-12-25T04:39:50.364Z,965.68
2022-12-25T04:40:40.331Z,965.68
2022-12-25T04:41:30.322Z,965.63
2022-12-25T04:42:20.311Z,965.60
2022-12-25T04:43:10.328Z,965.61
2022-12-25T04:44:00.302Z,965.59
2022-12-25T04:44:50.296Z,965.62
2022-12-25T04:45:40.274Z,965.68
2022-12-25T04:46:30.350Z,965.63
2022-12-25T04:47:20.264Z,965.64
2022-12-25T04:48:10.261Z,965.58
2022-12-25T04:49:00.258Z,965.67
2022-12-25T04:49:50.233Z,965.61
2022-12-25T04:50:40.220Z,965.59
2022-12-25T04:51:30.220Z,965.60
2022-12-25T04:52:20.201Z,965.58
2022-12-25T04:53:10.200Z,965.60
2022-12-25T04:54:00.216Z,965.62
2022-12-25T04:54:50.169Z,965.58
2022-12-25T04:55:40.164Z,965.58
2022-12-25T04:56:30.154Z,965.52
2022-12-25T04:57:20.148Z,965.58
2022-12-25T04:58:10.143Z,965.57
2022-12-25T04:59:00.140Z,965.55
2022-12-25T04:59:50.121Z,965.59
2022-12-25T05:00:40.112Z,965.51
2022-12-25T05:01:30.195Z,965.53
2022-12-25T05:02:20.298Z,965.50
2022-12-25T05:03:10.238Z,965.48
2022-12-25T05:04:00.170Z,965.46
2022-12-25T05:04:50.073Z,965.41
2022-12-25T05:05:40.061Z,965.43
2022-12-25T05:06:30.048Z,965.34
2022-12-25T05:07:20.045Z,965.40
2022-12-25T05:08:10.049Z,965.42
2022-12-25T05:09:00.025Z,965.47
2022-12-25T05:09:50.009Z,965.49
2022-12-25T05:10:39.999Z,965.45
2022-12-25T05:11:29.987Z,965.48
2022-12-25T05:12:19.979Z,965.51
2022-12-25T05:13:09.983Z,965.49
2022-12-25T05:13:59.968Z,965.44
2022-12-25T05:14:49.952Z,965.46
2022-12-25T05:15:39.992Z,965.43
2022-12-25T05:16:30.001Z,965.37
2022-12-25T05:17:19.924Z,965.34
2022-12-25T05:18:09.933Z,965.35
2022-12-25T05:18:59.952Z,965.34
2022-12-25T05:19:49.897Z,965.32
2022-12-25T05:20:40.542Z,965.24
2022-12-25T05:21:29.885Z,965.29
2022-12-25T05:22:19.867Z,965.27
2022-12-25T05:23:09.871Z,965.25
2022-12-25T05:23:59.868Z,965.26
2022-12-25T05:24:49.845Z,965.22
2022-12-25T05:25:39.824Z,965.24
2022-12-25T05:26:29.859Z,965.25
2022-12-25T05:27:19.805Z,965.28
2022-12-25T05:28:09.825Z,965.28
2022-12-25T05:28:59.806Z,965.30
2022-12-25T05:29:49.796Z,965.33
2022-12-25T05:30:39.772Z,965.28
2022-12-25T05:31:29.823Z,965.34
2022-12-25T05:32:19.755Z,965.30
2022-12-25T05:33:09.796Z,965.32
2022-12-25T05:33:59.734Z,965.29
2022-12-25T05:34:49.730Z,965.32
2022-12-25T05:35:39.712Z,965.31
2022-12-25T05:36:29.702Z,965.26
2022-12-25T05:37:19.691Z,965.32
2022-12-25T05:38:09.694Z,965.29
2022-12-25T05:38:59.704Z,965.23
2022-12-25T05:39:49.673Z,965.27
2022-12-25T05:40:39.665Z,965.23
2022-12-25T05:41:34.137Z,965.24
2022-12-25T05:42:20.644Z,965.30
2022-12-25T05:43:09.663Z,965.28
2022-12-25T05:43:59.645Z,965.24
2022-12-25T05:44:49.632Z,965.26
2022-12-25T05:45:39.629Z,965.30
2022-12-25T05:46:29.637Z,965.24
2022-12-25T05:47:19.588Z,965.22
2022-12-25T05:48:09.589Z,965.19
2022-12-25T05:48:59.591Z,965.15
2022-12-25T05:49:49.561Z,965.13
2022-12-25T05:50:39.556Z,965.13
2022-12-25T05:51:29.542Z,965.11
2022-12-25T05:52:19.532Z,965.08
2022-12-25T05:53:09.533Z,965.17
2022-12-25T05:53:59.545Z,965.15
2022-12-25T05:54:49.515Z,965.14
2022-12-25T05:55:39.506Z,965.19
2022-12-25T05:56:29.499Z,965.19
2022-12-25T05:57:19.480Z,965.13
2022-12-25T05:58:09.480Z,965.13
2022-12-25T05:58:59.486Z,965.11
2022-12-25T05:59:49.451Z,965.19
2022-12-25T06:00:39.440Z,965.15
2022-12-25T06:01:29.662Z,965.12
2022-12-25T06:02:19.530Z,965.13
2022-12-25T06:03:09.512Z,965.10
2022-12-25T06:03:59.452Z,965.10
2022-12-25T06:04:49.399Z,965.12
2022-12-25T06:05:39.389Z,965.10
2022-12-25T06:06:29.380Z,965.09
2022-12-25T06:07:19.364Z,965.10
2022-12-25T06:08:09.364Z,965.08
2022-12-25T06:08:59.368Z,965.08
2022-12-25T06:09:49.337Z,965.08
2022-12-25T06:10:39.326Z,965.05
2022-12-25T06:11:29.329Z,965.01
2022-12-25T06:12:19.305Z,965.01
2022-12-25T06:13:09.301Z,965.06
2022-12-25T06:13:59.304Z,965.06
2022-12-25T06:14:49.286Z,965.00
2022-12-25T06:15:39.293Z,964.99
2022-12-25T06:16:35.623Z,964.99
2022-12-25T06:17:20.255Z,965.02
2022-12-25T06:18:09.258Z,965.05
2022-12-25T06:18:59.245Z,965.04
2022-12-25T06:19:49.249Z,965.01
2022-12-25T06:20:39.234Z,965.07
2022-12-25T06:21:29.220Z,965.05
2022-12-25T06:22:19.213Z,965.04
2022-12-25T06:23:09.240Z,965.03
2022-12-25T06:23:59.247Z,965.09
2022-12-25T06:24:49.184Z,965.03
2022-12-25T06:25:39.160Z,965.09
2022-12-25T06:26:29.165Z,965.09
2022-12-25T06:27:19.144Z,965.09
2022-12-25T06:28:09.132Z,965.08
2022-12-25T06:28:59.164Z,965.08
2022-12-25T06:29:49.114Z,965.07
2022-12-25T06:30:39.119Z,965.12
2022-12-25T06:31:29.167Z,965.16
2022-12-25T06:32:19.083Z,965.14
2022-12-25T06:33:09.092Z,965.10
2022-12-25T06:33:59.085Z,965.14
2022-12-25T06:34:49.077Z,965.16
2022-12-25T06:35:39.062Z,965.15
2022-12-25T06:36:29.043Z,965.11
2022-12-25T06:37:19.046Z,965.15
2022-12-25T06:38:09.025Z,965.16
2022-12-25T06:38:59.044Z,965.17
2022-12-25T06:39:49.003Z,965.20
2022-12-25T06:40:39.001Z,965.16
2022-12-25T06:41:28.994Z,965.16
2022-12-25T06:42:18.983Z,965.15
2022-12-25T06:43:08.977Z,965.17
2022-12-25T06:43:58.983Z,965.15
2022-12-25T06:44:48.956Z,965.15
2022-12-25T06:45:38.962Z,965.13
2022-12-25T06:46:28.939Z,965.09
2022-12-25T06:47:18.922Z,965.08
2022-12-25T06:48:08.928Z,965.14
2022-12-25T06:48:58.923Z,965.13
2022-12-25T06:49:48.889Z,965.12
2022-12-25T06:50:38.891Z,965.11
2022-12-25T06:51:28.875Z,965.11
2022-12-25T06:52:18.872Z,965.09
2022-12-25T06:53:08.852Z,965.09
2022-12-25T06:53:58.867Z,965.09
2022-12-25T06:54:48.848Z,965.11
2022-12-25T06:55:38.830Z,965.16
2022-12-25T06:56:28.823Z,965.16
2022-12-25T06:57:18.821Z,965.16
2022-12-25T06:58:08.801Z,965.16
2022-12-25T06:58:58.815Z,965.17
2022-12-25T06:59:54.716Z,965.20
2022-12-25T07:00:39.860Z,965.22
2022-12-25T07:01:28.898Z,965.24
2022-12-25T07:02:18.929Z,965.22
2022-12-25T07:03:08.829Z,965.21
2022-12-25T07:03:58.747Z,965.23
2022-12-25T07:04:48.757Z,965.23
2022-12-25T07:05:38.723Z,965.30
2022-12-25T07:06:28.717Z,965.26
2022-12-25T07:07:18.721Z,965.25
2022-12-25T07:08:08.687Z,965.26
2022-12-25T07:08:58.699Z,965.22
2022-12-25T07:09:48.689Z,965.20
2022-12-25T07:10:38.678Z,965.16
2022-12-25T07:11:28.648Z,965.15
2022-12-25T07:12:18.651Z,965.10
2022-12-25T07:13:08.637Z,965.12
2022-12-25T07:13:58.625Z,965.13
2022-12-25T07:14:48.653Z,965.09
2022-12-25T07:15:38.616Z,965.11
2022-12-25T07:16:28.630Z,965.14
2022-12-25T07:17:18.598Z,965.16
2022-12-25T07:18:08.605Z,965.17
2022-12-25T07:18:58.576Z,965.12
2022-12-25T07:19:48.586Z,965.13
2022-12-25T07:20:38.568Z,965.16
2022-12-25T07:21:28.547Z,965.14
2022-12-25T07:22:18.542Z,965.14
2022-12-25T07:23:08.525Z,965.12
2022-12-25T07:23:58.526Z,965.13
2022-12-25T07:24:48.542Z,965.12
2022-12-25T07:25:38.500Z,965.13
2022-12-25T07:26:28.486Z,965.13
2022-12-25T07:27:18.490Z,965.09
2022-12-25T07:28:08.473Z,965.12
2022-12-25T07:28:58.475Z,965.14
2022-12-25T07:29:48.469Z,965.10
2022-12-25T07:30:38.449Z,965.01
2022-12-25T07:31:28.464Z,965.06
2022-12-25T07:32:18.432Z,965.07
2022-12-25T07:33:08.414Z,965.10
2022-12-25T07:33:58.413Z,965.06
2022-12-25T07:34:48.405Z,965.05
2022-12-25T07:35:38.415Z,964.98
2022-12-25T07:36:28.373Z,964.95
2022-12-25T07:37:18.373Z,964.94
2022-12-25T07:38:08.371Z,964.98
2022-12-25T07:38:58.392Z,964.95
2022-12-25T07:39:48.365Z,964.91
2022-12-25T07:40:38.331Z,964.90
2022-12-25T07:41:28.323Z,964.89
2022-12-25T07:42:23.387Z,964.84
2022-12-25T07:43:09.330Z,964.88
2022-12-25T07:43:58.316Z,964.86
2022-12-25T07:44:48.304Z,964.86
2022-12-25T07:45:38.334Z,964.91
2022-12-25T07:46:28.392Z,964.87
2022-12-25T07:47:18.311Z,964.89
2022-12-25T07:48:13.396Z,964.95
2022-12-25T07:48:59.242Z,964.94
2022-12-25T07:49:48.246Z,964.93
2022-12-25T07:50:38.222Z,964.91
2022-12-25T07:51:28.212Z,964.88
2022-12-25T07:52:18.208Z,964.90
2022-12-25T07:53:08.181Z,964.87
2022-12-25T07:53:58.187Z,964.90
2022-12-25T07:54:48.183Z,964.85
2022-12-25T07:55:38.171Z,964.96
2022-12-25T07:56:28.152Z,964.97
2022-12-25T07:57:18.154Z,964.98
2022-12-25T07:58:08.132Z,964.99
2022-12-25T07:58:58.131Z,965.00
2022-12-25T07:59:48.131Z,965.04
2022-12-25T08:00:38.132Z,964.99
2022-12-25T08:01:28.243Z,965.01
2022-12-25T08:02:18.279Z,965.03
2022-12-25T08:03:08.433Z,964.99
2022-12-25T08:03:58.183Z,964.93
2022-12-25T08:04:48.071Z,965.01
2022-12-25T08:05:38.061Z,964.97
2022-12-25T08:06:28.040Z,964.98
2022-12-25T08:07:18.048Z,964.97
2022-12-25T08:08:08.040Z,964.96
2022-12-25T08:08:58.029Z,964.95
2022-12-25T08:09:48.020Z,964.95
2022-12-25T08:10:38.003Z,964.92
2022-12-25T08:11:27.994Z,964.91
2022-12-25T08:12:17.988Z,964.88
2022-12-25T08:13:14.262Z,964.91
2022-12-25T08:13:58.970Z,964.94
2022-12-25T08:14:47.972Z,964.91
2022-12-25T08:15:37.947Z,964.96
2022-12-25T08:16:27.993Z,964.98
2022-12-25T08:17:17.940Z,965.02
2022-12-25T08:18:07.920Z,965.05
2022-12-25T08:18:57.910Z,965.05
2022-12-25T08:19:47.913Z,965.04
2022-12-25T08:20:37.893Z,965.09
2022-12-25T08:21:27.878Z,965.06
2022-12-25T08:22:17.873Z,965.13
2022-12-25T08:23:07.880Z,965.14
2022-12-25T08:23:57.858Z,965.15
2022-12-25T08:24:47.863Z,965.12
2022-12-25T08:25:37.843Z,965.13
2022-12-25T08:26:27.825Z,965.11
2022-12-25T08:27:17.832Z,965.11
2022-12-25T08:28:07.805Z,965.19
2022-12-25T08:28:57.799Z,965.16
2022-12-25T08:29:47.804Z,965.22
2022-12-25T08:30:37.811Z,965.25
2022-12-25T08:31:27.849Z,965.24
2022-12-25T08:32:17.773Z,965.19
2022-12-25T08:33:07.744Z,965.22
2022-12-25T08:33:57.782Z,965.17
2022-12-25T08:34:47.747Z,965.21
2022-12-25T08:35:37.729Z,965.16
2022-12-25T08:36:27.711Z,965.17
2022-12-25T08:37:17.705Z,965.19
2022-12-25T08:38:07.696Z,965.13
2022-12-25T08:39:02.682Z,965.13
2022-12-25T08:39:48.698Z,965.11
2022-12-25T08:40:37.681Z,965.09
2022-12-25T08:41:27.668Z,965.05
2022-12-25T08:42:17.644Z,965.05
2022-12-25T08:43:07.685Z,965.01
2022-12-25T08:43:57.637Z,965.01
2022-12-25T08:44:47.634Z,964.95
2022-12-25T08:45:37.625Z,964.93
2022-12-25T08:46:27.641Z,964.98
2022-12-25T08:47:17.594Z,964.96
2022-12-25T08:48:07.591Z,965.01
2022-12-25T08:48:57.607Z,964.98
2022-12-25T08:49:47.575Z,964.97
2022-12-25T08:50:37.559Z,964.98
2022-12-25T08:51:27.555Z,964.95
2022-12-25T08:52:17.547Z,964.97
2022-12-25T08:53:07.522Z,964.97
2022-12-25T08:53:57.522Z,964.92
2022-12-25T08:54:47.532Z,964.94
2022-12-25T08:55:37.503Z,964.93
2022-12-25T08:56:27.493Z,965.00
2022-12-25T08:57:17.481Z,964.97
2022-12-25T08:58:07.481Z,964.97
2022-12-25T08:58:57.463Z,965.02
2022-12-25T08:59:47.477Z,964.97
2022-12-25T09:00:37.458Z,964.97
2022-12-25T09:01:27.574Z,964.98
2022-12-25T09:02:17.599Z,964.97
2022-12-25T09:03:07.532Z,964.93
2022-12-25T09:03:57.411Z,964.92
2022-12-25T09:04:47.415Z,964.93
2022-12-25T09:05:37.396Z,964.90
2022-12-25T09:06:27.382Z,964.95
2022-12-25T09:07:17.370Z,964.93
2022-12-25T09:08:07.363Z,964.94
2022-12-25T09:08:57.350Z,964.96
2022-12-25T09:09:47.358Z,964.96
2022-12-25T09:10:37.347Z,964.97
2022-12-25T09:11:27.328Z,964.92
2022-12-25T09:12:17.320Z,964.95
2022-12-25T09:13:07.316Z,964.92
2022-12-25T09:13:57.303Z,964.93
2022-12-25T09:14:47.301Z,964.94
2022-12-25T09:15:37.356Z,964.93
2022-12-25T09:16:27.308Z,964.96
2022-12-25T09:17:17.262Z,964.95
2022-12-25T09:18:07.248Z,964.97
2022-12-25T09:18:57.254Z,965.00
2022-12-25T09:19:47.244Z,964.96
2022-12-25T09:20:37.218Z,965.01
2022-12-25T09:21:27.224Z,964.98
2022-12-25T09:22:17.210Z,964.99
2022-12-25T09:23:13.304Z,965.00
2022-12-25T09:23:58.190Z,964.99
2022-12-25T09:24:47.192Z,965.07
2022-12-25T09:25:37.169Z,965.04
2022-12-25T09:26:27.173Z,965.06
2022-12-25T09:27:17.161Z,965.07
2022-12-25T09:28:07.207Z,965.02
2022-12-25T09:28:57.142Z,965.07
2022-12-25T09:29:47.141Z,965.05
2022-12-25T09:30:37.159Z,965.01
2022-12-25T09:31:27.173Z,965.07
2022-12-25T09:32:17.101Z,965.01
2022-12-25T09:33:07.116Z,964.97
2022-12-25T09:33:57.075Z,965.03
2022-12-25T09:34:47.110Z,965.03
2022-12-25T09:35:37.079Z,965.02
2022-12-25T09:36:27.061Z,964.98
2022-12-25T09:37:17.057Z,964.95
2022-12-25T09:38:07.027Z,964.99
2022-12-25T09:38:57.025Z,964.93
2022-12-25T09:39:47.027Z,964.95
2022-12-25T09:40:37.006Z,964.99
2022-12-25T09:41:26.998Z,964.91
2022-12-25T09:42:16.993Z,964.91
2022-12-25T09:43:06.973Z,964.92
2022-12-25T09:43:56.967Z,964.87
2022-12-25T09:44:46.978Z,964.87
2022-12-25T09:45:36.957Z,964.85
2022-12-25T09:46:31.615Z,964.79
2022-12-25T09:47:17.934Z,964.79
2022-12-25T09:48:06.919Z,964.79
2022-12-25T09:48:56.915Z,964.79
2022-12-25T09:49:46.918Z,964.82
2022-12-25T09:50:36.906Z,964.78
2022-12-25T09:51:26.876Z,964.77
2022-12-25T09:52:16.876Z,964.73
2022-12-25T09:53:06.858Z,964.77
2022-12-25T09:53:56.855Z,964.75
2022-12-25T09:54:46.857Z,964.70
2022-12-25T09:55:36.836Z,964.67
2022-12-25T09:56:26.826Z,964.63
2022-12-25T09:57:16.842Z,964.61
2022-12-25T09:58:06.810Z,964.67
2022-12-25T09:58:56.823Z,964.64
2022-12-25T09:59:46.820Z,964.63
2022-12-25T10:00:36.788Z,964.62
2022-12-25T10:01:26.871Z,964.60
2022-12-25T10:02:16.883Z,964.59
2022-12-25T10:03:06.951Z,964.57
2022-12-25T10:03:56.834Z,964.59
2022-12-25T10:04:46.775Z,964.56
2022-12-25T10:05:36.727Z,964.55
2022-12-25T10:06:26.711Z,964.54
2022-12-25T10:07:16.707Z,964.53
2022-12-25T10:08:06.701Z,964.51
2022-12-25T10:08:56.698Z,964.55
2022-12-25T10:09:46.699Z,964.53
2022-12-25T10:10:36.668Z,964.55
2022-12-25T10:11:26.735Z,964.51
2022-12-25T10:12:16.640Z,964.52
2022-12-25T10:13:13.636Z,964.48
2022-12-25T10:13:56.622Z,964.48
2022-12-25T10:14:46.625Z,964.48
2022-12-25T10:15:39.264Z,964.46
2022-12-25T10:16:27.702Z,964.43
2022-12-25T10:17:16.600Z,964.42
2022-12-25T10:18:06.610Z,964.42
2022-12-25T10:18:56.588Z,964.41
2022-12-25T10:19:46.596Z,964.42
2022-12-25T10:20:36.591Z,964.42
2022-12-25T10:21:26.555Z,964.45
2022-12-25T10:22:16.547Z,964.49
2022-12-25T10:23:06.535Z,964.47
2022-12-25T10:23:56.521Z,964.42